Time;durP1;ratioP1;P1;durP2;ratioP2;P2;SDS_P1;SDS_P2;PMS_P1;PMS_P2;Temp;Humidity;BMP_temperature;BMP_pressure;BME280_temperature;BME280_humidity;BME280_pressure;Samples;Min_cycle;Max_cycle;Signal;HPM_P1;HPM_P2
2022/01/08 00:02:03;;;;;;;2.70;2.03;;;;;;;;;;5020443;28;20671;-84
2022/01/08 00:04:30;;;;;;;1.92;1.67;;;;;;;;;;5019260;28;20200;-84
2022/01/08 00:06:57;;;;;;;2.28;2.08;;;;;;;;;;5023013;28;20205;-84
2022/01/08 00:09:25;;;;;;;4.90;2.42;;;;;;;;;;5020395;28;20223;-84
2022/01/08 00:11:53;;;;;;;2.03;1.83;;;;;;;;;;5020081;28;20217;-84
2022/01/08 00:14:22;;;;;;;1.77;1.50;;;;;;;;;;5023917;28;20274;-84
2022/01/08 00:16:50;;;;;;;2.67;2.00;;;;;;;;;;5016209;28;20236;-84
2022/01/08 00:19:17;;;;;;;3.55;1.95;;;;;;;;;;5015040;28;20201;-84
2022/01/08 00:21:44;;;;;;;1.77;1.65;;;;;;;;;;5017031;28;20283;-85
2022/01/08 00:24:12;;;;;;;3.15;2.55;;;;;;;;;;5019294;28;20209;-84
2022/01/08 00:26:39;;;;;;;5.40;2.60;;;;;;;;;;5020468;28;20208;-84
2022/01/08 00:29:08;;;;;;;3.50;2.30;;;;;;;;;;5019368;28;20573;-84
2022/01/08 00:31:35;;;;;;;2.70;2.00;;;;;;;;;;5016758;28;20213;-85
2022/01/08 00:34:02;;;;;;;0.90;0.90;;;;;;;;;;5016928;28;20547;-84
2022/01/08 00:36:29;;;;;;;6.88;1.75;;;;;;;;;;5020242;28;20211;-84
2022/01/08 00:38:56;;;;;;;1.80;1.60;;;;;;;;;;5021374;28;20196;-84
2022/01/08 00:41:25;;;;;;;3.55;1.75;;;;;;;;;;5023371;28;20204;-84
2022/01/08 00:43:53;;;;;;;2.20;1.95;;;;;;;;;;5021701;28;20193;-84
2022/01/08 00:46:21;;;;;;;2.20;1.80;;;;;;;;;;5024389;28;20220;-84
2022/01/08 00:48:48;;;;;;;2.40;2.08;;;;;;;;;;5018495;28;20215;-84
2022/01/08 00:51:16;;;;;;;2.47;1.88;;;;;;;;;;5017971;28;20262;-84
2022/01/08 00:53:43;;;;;;;1.75;1.65;;;;;;;;;;5021445;28;20240;-84
2022/01/08 00:56:13;;;;;;;2.38;2.00;;;2.00;99.30;;;;;;5023055;28;20217;-84
2022/01/08 00:58:41;;;;;;;1.70;1.60;;;;;;;;;;5019503;28;20255;-84
2022/01/08 01:01:08;;;;;;;3.20;2.90;;;;;;;;;;5023711;28;20205;-84
2022/01/08 01:03:37;;;;;;;2.13;1.95;;;;;;;;;;5020223;28;20633;-84
2022/01/08 01:06:06;;;;;;;2.42;1.90;;;;;;;;;;5022267;28;20689;-84
2022/01/08 01:08:34;;;;;;;2.97;2.30;;;;;;;;;;5014146;28;20708;-84
2022/01/08 01:11:02;;;;;;;2.60;2.40;;;;;;;;;;5020661;28;20213;-84
2022/01/08 01:13:29;;;;;;;3.00;2.10;;;;;;;;;;5016606;28;20220;-84
2022/01/08 01:15:57;;;;;;;2.28;2.08;;;;;;;;;;5019613;28;20677;-84
2022/01/08 01:18:24;;;;;;;4.55;2.17;;;;;;;;;;5011510;28;20282;-83
2022/01/08 01:20:53;;;;;;;2.30;1.83;;;;;;;;;;5018721;28;20961;-83
2022/01/08 01:23:27;;;;;;;2.20;1.90;;;;;;;;;;5018517;28;20197;-84
2022/01/08 01:25:59;;;;;;;2.60;2.40;;;;;;;;;;5016894;28;20208;-84
2022/01/08 01:28:38;;;;;;;2.15;1.98;;;;;;;;;;5020484;28;20230;-84
2022/01/08 01:47:36;;;;;;;2.50;2.30;;;2.30;98.40;;;;;;5018849;28;20218;-84
2022/01/08 01:50:06;;;;;;;2.20;1.70;;;2.30;98.50;;;;;;5018491;28;20576;-84
2022/01/08 01:52:35;;;;;;;1.75;1.27;;;;;;;;;;5024034;28;20204;-84
2022/01/08 01:55:02;;;;;;;3.35;1.75;;;;;;;;;;5017067;28;20223;-84
2022/01/08 01:57:30;;;;;;;2.05;1.90;;;2.30;98.30;;;;;;5019751;28;20208;-84
2022/01/08 01:59:59;;;;;;;4.82;1.52;;;;;;;;;;5019864;28;20201;-84
2022/01/08 02:02:26;;;;;;;2.10;1.90;;;;;;;;;;5018751;28;20275;-83
2022/01/08 02:04:53;;;;;;;2.65;1.63;;;;;;;;;;5019098;28;20224;-83
2022/01/08 02:07:23;;;;;;;1.80;1.70;;;;;;;;;;5022423;28;20212;-83
2022/01/08 02:09:52;;;;;;;1.85;1.70;;;;;;;;;;5019566;28;20217;-84
2022/01/08 02:12:22;;;;;;;1.60;1.45;;;;;;;;;;5012250;28;20229;-84
2022/01/08 02:14:50;;;;;;;1.70;1.33;;;;;;;;;;5020235;28;20302;-83
2022/01/08 02:17:17;;;;;;;1.45;1.35;;;2.30;98.90;;;;;;5019873;28;20225;-84
2022/01/08 02:19:45;;;;;;;1.55;1.45;;;;;;;;;;5016398;28;20217;-84
2022/01/08 02:22:16;;;;;;;1.48;1.13;;;;;;;;;;5022364;28;20244;-84
2022/01/08 02:24:44;;;;;;;1.80;1.40;;;;;;;;;;5019015;28;20282;-84
2022/01/08 02:27:12;;;;;;;2.30;1.60;;;;;;;;;;5022151;28;20209;-84
2022/01/08 02:29:39;;;;;;;4.40;1.65;;;;;;;;;;5015026;28;20209;-84
2022/01/08 02:32:09;;;;;;;1.33;1.23;;;2.50;99.70;;;;;;5023411;28;20667;-84
2022/01/08 02:34:37;;;;;;;1.23;1.17;;;2.50;99.60;;;;;;5020532;28;20629;-84
2022/01/08 02:37:05;;;;;;;3.53;1.45;;;;;;;;;;5017268;28;20214;-83
2022/01/08 02:39:38;;;;;;;4.47;1.20;;;;;;;;;;5017005;28;20213;-83
2022/01/08 02:42:06;;;;;;;1.50;1.40;;;1.00;98.70;;;;;;5019947;28;20246;-83
2022/01/08 02:44:34;;;;;;;1.67;1.58;;;;;;;;;;5021230;28;20208;-83
2022/01/08 02:47:01;;;;;;;1.58;1.48;;;;;;;;;;5022302;28;20284;-83
2022/01/08 02:49:28;;;;;;;1.52;1.40;;;;;;;;;;5019384;28;20651;-82
2022/01/08 02:51:56;;;;;;;1.80;1.52;;;;;;;;;;5023887;28;20213;-83
2022/01/08 02:54:23;;;;;;;1.52;1.02;;;;;;;;;;5023217;28;20229;-84
2022/01/08 02:56:52;;;;;;;1.35;1.05;;;;;;;;;;5018495;28;20212;-84
2022/01/08 02:59:19;;;;;;;3.63;1.35;;;;;;;;;;5020081;28;20685;-83
2022/01/08 03:01:48;;;;;;;1.30;1.30;;;;;;;;;;5023665;28;20223;-83
2022/01/08 03:04:15;;;;;;;1.08;1.08;;;;;;;;;;5026457;28;20197;-83
2022/01/08 03:06:42;;;;;;;1.30;1.20;;;;;;;;;;5016487;28;20236;-83
2022/01/08 03:09:10;;;;;;;1.45;1.35;;;;;;;;;;5017619;28;20208;-83
2022/01/08 03:11:38;;;;;;;8.32;2.00;;;;;;;;;;5018968;28;20213;-83
2022/01/08 03:14:07;;;;;;;1.75;1.42;;;;;;;;;;5018017;28;20609;-83
2022/01/08 03:16:34;;;;;;;1.30;1.25;;;;;;;;;;5021679;28;20635;-83
2022/01/08 03:19:08;;;;;;;1.50;1.40;;;;;;;;;;5018437;28;20617;-82
2022/01/08 03:21:38;;;;;;;3.00;1.98;;;;;;;;;;5019460;28;20296;-82
2022/01/08 03:24:07;;;;;;;1.85;1.75;;;;;;;;;;5019900;28;20719;-82
2022/01/08 03:26:34;;;;;;;1.27;1.20;;;;;;;;;;5022436;28;20214;-83
2022/01/08 03:29:02;;;;;;;1.60;1.50;;;;;;;;;;5018402;28;20258;-83
2022/01/08 03:31:30;;;;;;;3.58;1.70;;;;;;;;;;5018330;28;20667;-83
2022/01/08 03:33:57;;;;;;;4.35;1.67;;;;;;;;;;5018658;28;20256;-83
2022/01/08 03:36:25;;;;;;;1.55;1.45;;;2.60;99.90;;;;;;5024533;28;20213;-83
2022/01/08 03:38:53;;;;;;;2.05;1.85;;;2.60;99.90;;;;;;5020101;28;20212;-83
2022/01/08 03:41:21;;;;;;;1.60;1.50;;;;;;;;;;5026124;28;20200;-83
2022/01/08 03:43:52;;;;;;;3.05;1.95;;;;;;;;;;5022116;28;20204;-83
2022/01/08 03:46:21;;;;;;;1.90;1.80;;;;;;;;;;5024025;28;20212;-83
2022/01/08 03:49:12;;;;;;;4.40;1.70;;;;;;;;;;5018414;28;20640;-82
2022/01/08 03:51:40;;;;;;;1.58;1.48;;;;;;;;;;5025421;28;20204;-83
2022/01/08 03:54:07;;;;;;;2.58;1.95;;;;;;;;;;5020380;28;20224;-83
2022/01/08 03:56:35;;;;;;;1.90;1.80;;;;;;;;;;5022806;28;20209;-83
2022/01/08 03:59:02;;;;;;;4.50;2.60;;;;;;;;;;5017682;28;20215;-83
2022/01/08 04:01:29;;;;;;;2.17;1.90;;;;;;;;;;5023668;28;20204;-83
2022/01/08 04:03:58;;;;;;;2.25;2.05;;;;;;;;;;5016958;28;20291;-82
2022/01/08 04:06:25;;;;;;;4.03;2.40;;;;;;;;;;5024027;28;20205;-82
2022/01/08 04:08:57;;;;;;;2.65;2.10;;;;;;;;;;5022859;28;20678;-82
2022/01/08 04:11:24;;;;;;;3.80;2.63;;;;;;;;;;5019621;28;20217;-82
2022/01/08 04:13:51;;;;;;;2.60;2.22;;;;;;;;;;5019938;28;20794;-82
2022/01/08 04:16:23;;;;;;;3.90;2.90;;;;;;;;;;5023076;28;20245;-82
2022/01/08 04:18:51;;;;;;;2.83;2.63;;;;;;;;;;5016333;28;20216;-82
2022/01/08 04:21:58;;;;;;;3.60;2.90;;;;;;;;;;5021851;28;20213;-82
2022/01/08 04:24:21;;;;;;;3.00;2.80;;;;;;;;;;5024449;28;20204;-82
2022/01/08 04:26:48;;;;;;;3.72;2.47;;;;;;;;;;5022468;28;20215;-82
2022/01/08 04:29:16;;;;;;;3.20;2.90;;;;;;;;;;5019690;28;20211;-82
2022/01/08 04:31:43;;;;;;;4.65;3.80;;;;;;;;;;5021217;28;20209;-82
2022/01/08 04:34:10;;;;;;;3.55;2.85;;;;;;;;;;5022633;28;20228;-83
2022/01/08 04:36:39;;;;;;;3.25;3.05;;;;;;;;;;5022477;28;20289;-83
2022/01/08 04:39:06;;;;;;;4.03;2.42;;;;;;;;;;5021736;28;20568;-82
2022/01/08 04:41:33;;;;;;;2.72;2.45;;;;;;;;;;5023752;28;20212;-83
2022/01/08 04:44:00;;;;;;;2.58;2.30;;;;;;;;;;5017186;28;20225;-82
2022/01/08 04:46:28;;;;;;;2.97;2.67;;;;;;;;;;5021790;28;20209;-83
2022/01/08 04:48:55;;;;;;;2.50;2.30;;;;;;;;;;5019958;28;20287;-83
2022/01/08 04:51:22;;;;;;;4.00;2.05;;;;;;;;;;5024138;28;20227;-83
2022/01/08 04:53:51;;;;;;;2.53;2.33;;;;;;;;;;5017097;28;20208;-83
2022/01/08 04:56:18;;;;;;;2.30;2.10;;;;;;;;;;5018250;28;20227;-83
2022/01/08 04:58:45;;;;;;;2.58;2.22;;;;;;;;;;5018163;28;20228;-84
2022/01/08 05:01:14;;;;;;;2.70;2.50;;;;;;;;;;5020982;28;20684;-83
2022/01/08 05:03:41;;;;;;;2.22;2.03;;;;;;;;;;5022662;28;20223;-83
2022/01/08 05:06:08;;;;;;;2.78;2.58;;;;;;;;;;5018746;28;20204;-83
2022/01/08 05:08:35;;;;;;;2.05;1.85;;;;;;;;;;5024130;28;20212;-83
2022/01/08 05:11:04;;;;;;;2.13;1.52;;;;;;;;;;5020232;28;20355;-83
2022/01/08 05:13:31;;;;;;;2.03;1.80;;;;;;;;;;5015838;28;20224;-83
2022/01/08 05:16:00;;;;;;;1.95;1.60;;;;;;;;;;5024123;28;20238;-84
2022/01/08 05:18:29;;;;;;;1.80;1.70;;;;;;;;;;5018900;28;20212;-83
2022/01/08 05:21:08;;;;;;;1.42;1.33;;;;;;;;;;5017763;28;20680;-84
2022/01/08 05:23:35;;;;;;;1.50;1.40;;;;;;;;;;5024083;28;20259;-83
2022/01/08 05:26:04;;;;;;;3.58;2.25;;;;;;;;;;5018658;28;20205;-84
2022/01/08 05:28:31;;;;;;;1.15;1.05;;;;;;;;;;5017176;28;20213;-84
2022/01/08 05:30:59;;;;;;;1.83;1.67;;;;;;;;;;5021404;28;20204;-83
2022/01/08 05:33:26;;;;;;;1.98;1.67;;;;;;;;;;5017517;28;20213;-84
2022/01/08 05:35:53;;;;;;;1.88;1.20;;;;;;;;;;5022628;28;20235;-83
2022/01/08 05:38:20;;;;;;;2.13;1.42;;;;;;;;;;5017929;28;20208;-83
2022/01/08 05:40:47;;;;;;;1.20;1.10;;;1.70;99.90;;;;;;5017936;28;20880;-83
2022/01/08 05:43:16;;;;;;;1.73;1.60;;;;;;;;;;5020620;28;20577;-84
2022/01/08 05:45:43;;;;;;;1.83;1.67;;;;;;;;;;5023280;28;20204;-83
2022/01/08 05:48:12;;;;;;;1.45;1.35;;;;;;;;;;5019509;28;20212;-83
2022/01/08 05:50:39;;;;;;;1.00;0.77;;;;;;;;;;5016747;28;20295;-83
2022/01/08 05:53:06;;;;;;;1.33;1.02;;;;;;;;;;5011101;28;20303;-83
2022/01/08 05:55:34;;;;;;;1.35;1.23;;;;;;;;;;5024795;28;20282;-83
2022/01/08 05:58:01;;;;;;;1.30;1.20;;;;;;;;;;5023097;28;20720;-83
2022/01/08 06:00:30;;;;;;;1.30;1.10;;;;;;;;;;5019294;28;20290;-83
2022/01/08 06:02:57;;;;;;;1.10;1.00;;;;;;;;;;5023187;28;20204;-83
2022/01/08 06:05:25;;;;;;;1.30;1.30;;;;;;;;;;5019151;28;20283;-83
2022/01/08 06:07:52;;;;;;;1.75;1.40;;;1.50;99.90;;;;;;5016117;28;20296;-82
2022/01/08 06:10:19;;;;;;;0.60;0.60;;;1.40;99.90;;;;;;5018400;28;20216;-81
2022/01/08 06:12:47;;;;;;;0.60;0.60;;;;;;;;;;5020249;28;20205;-81
2022/01/08 06:15:14;;;;;;;0.50;0.50;;;;;;;;;;5019436;28;20225;-81
2022/01/08 06:17:43;;;;;;;1.13;0.90;;;;;;;;;;5011857;28;20206;-81
2022/01/08 06:20:11;;;;;;;1.48;1.15;;;1.20;99.90;;;;;;5019653;28;20209;-82
2022/01/08 06:22:38;;;;;;;0.60;0.60;;;0.60;99.90;;;;;;5024617;28;20287;-81
2022/01/08 06:25:06;;;;;;;1.10;1.00;;;1.10;99.90;;;;;;5022407;28;20212;-82
2022/01/08 06:27:33;;;;;;;1.30;1.15;;;1.20;99.90;;;;;;5022743;28;20205;-82
2022/01/08 06:30:02;;;;;;;0.73;0.73;;;;;;;;;;5021763;28;20215;-82
2022/01/08 06:32:29;;;;;;;1.50;1.40;;;;;;;;;;5023102;28;20240;-82
2022/01/08 06:34:58;;;;;;;0.95;0.90;;;1.00;99.90;;;;;;5026961;28;20315;-82
2022/01/08 06:37:25;;;;;;;1.23;1.15;;;;;;;;;;5021496;28;20256;-82
2022/01/08 06:39:52;;;;;;;1.10;1.00;;;;;;;;;;5024019;28;20220;-82
2022/01/08 06:42:19;;;;;;;0.68;0.68;;;;;;;;;;5023165;28;20266;-81
2022/01/08 06:44:47;;;;;;;0.80;0.80;;;;;;;;;;5020988;28;20212;-82
2022/01/08 06:47:14;;;;;;;0.50;0.50;;;;;;;;;;5019048;28;20240;-82
2022/01/08 06:49:41;;;;;;;1.02;1.00;;;;;;;;;;5019658;28;20217;-82
2022/01/08 06:52:10;;;;;;;0.93;0.80;;;;;;;;;;5019500;28;20220;-83
2022/01/08 06:54:37;;;;;;;1.92;1.20;;;;;;;;;;5022621;28;20259;-83
2022/01/08 06:57:04;;;;;;;1.45;1.35;;;1.00;99.90;;;;;;5024646;28;20266;-83
2022/01/08 06:59:31;;;;;;;1.10;1.10;;;1.10;99.90;;;;;;5021106;28;20204;-82
2022/01/08 07:01:59;;;;;;;3.35;1.27;;;;;;;;;;5022650;28;20216;-82
2022/01/08 07:04:25;;;;;;;4.50;0.90;;;1.00;99.90;;;;;;5024452;28;20214;-82
2022/01/08 07:06:53;;;;;;;1.45;1.30;;;;;;;;;;5020234;28;20228;-82
2022/01/08 07:09:21;;;;;;;1.23;1.20;;;;;;;;;;5019801;28;20208;-81
2022/01/08 07:11:49;;;;;;;1.60;1.50;;;;;;;;;;5019163;28;20220;-82
2022/01/08 07:14:16;;;;;;;1.40;1.30;;;;;;;;;;5029700;28;20262;-83
2022/01/08 07:16:44;;;;;;;1.02;1.00;;;;;;;;;;5025334;28;20232;-82
2022/01/08 07:19:11;;;;;;;1.38;1.30;;;;;;;;;;5018875;28;20209;-83
2022/01/08 07:21:38;;;;;;;2.70;2.15;;;;;;;;;;5019237;28;20231;-82
2022/01/08 07:24:05;;;;;;;1.80;1.70;;;;;;;;;;5019754;28;20296;-82
2022/01/08 07:26:34;;;;;;;1.02;0.82;;;;;;;;;;5022377;28;20275;-82
2022/01/08 07:29:01;;;;;;;2.30;2.10;;;;;;;;;;5018168;28;20201;-82
2022/01/08 07:31:28;;;;;;;1.63;1.50;;;;;;;;;;5023094;28;20267;-82
2022/01/08 07:33:56;;;;;;;1.60;1.50;;;;;;;;;;5019455;28;20209;-82
2022/01/08 07:36:23;;;;;;;1.55;1.45;;;;;;;;;;5022580;28;20278;-81
2022/01/08 07:38:51;;;;;;;1.88;1.67;;;;;;;;;;5022768;28;20197;-82
2022/01/08 07:41:18;;;;;;;1.80;1.70;;;;;;;;;;5024307;28;20266;-82
2022/01/08 07:43:46;;;;;;;2.22;2.03;;;;;;;;;;5022961;28;20573;-82
2022/01/08 07:46:14;;;;;;;6.72;2.42;;;0.90;99.90;;;;;;5021108;28;20279;-82
2022/01/08 07:48:41;;;;;;;7.88;2.58;;;;;;;;;;5015043;28;20264;-83
2022/01/08 07:51:08;;;;;;;4.85;1.70;;;;;;;;;;5024560;28;20273;-82
2022/01/08 07:53:36;;;;;;;1.73;1.60;;;;;;;;;;5025647;28;21032;-82
2022/01/08 07:56:03;;;;;;;1.83;1.73;;;;;;;;;;5021944;28;20216;-82
2022/01/08 07:58:30;;;;;;;3.50;2.30;;;;;;;;;;5021853;28;20556;-82
2022/01/08 08:00:59;;;;;;;2.10;2.00;;;;;;;;;;5020730;28;20258;-84
2022/01/08 08:03:26;;;;;;;2.40;2.20;;;;;;;;;;5025332;28;20205;-84
2022/01/08 08:05:54;;;;;;;3.10;2.63;;;;;;;;;;5018537;28;20220;-84
2022/01/08 08:08:22;;;;;;;2.72;2.30;;;1.00;99.90;;;;;;5024711;28;20212;-84
2022/01/08 08:10:50;;;;;;;2.40;2.20;;;0.90;99.90;;;;;;5028589;28;20205;-84
2022/01/08 08:13:17;;;;;;;3.58;1.55;;;;;;;;;;5029607;28;20208;-84
2022/01/08 08:15:45;;;;;;;5.43;2.15;;;;;;;;;;5027232;28;20232;-86
2022/01/08 08:18:13;;;;;;;4.43;1.75;;;;;;;;;;5021286;28;20228;-86
2022/01/08 08:20:41;;;;;;;2.60;2.40;;;;;;;;;;5019295;28;20670;-87
2022/01/08 08:23:09;;;;;;;1.80;1.70;;;3.20;99.90;;;;;;5018338;28;20204;-87
2022/01/08 08:25:36;;;;;;;4.07;2.10;;;;;;;;;;5015497;28;20328;-88
2022/01/08 08:28:05;;;;;;;2.60;1.58;;;;;;;;;;5022346;28;20283;-87
2022/01/08 08:30:33;;;;;;;2.05;1.80;;;;;;;;;;5024125;28;20209;-88
2022/01/08 08:33:00;;;;;;;11.35;2.88;;;;;;;;;;5016804;28;20244;-87
2022/01/08 08:35:29;;;;;;;4.15;2.00;;;;;;;;;;5013974;28;20213;-87
2022/01/08 08:37:56;;;;;;;2.40;2.20;;;;;;;;;;5018437;28;20216;-87
2022/01/08 08:40:24;;;;;;;4.55;3.03;;;;;;;;;;5017929;28;20572;-87
2022/01/08 08:42:51;;;;;;;2.13;2.03;;;;;;;;;;5018372;28;20213;-87
2022/01/08 08:45:18;;;;;;;3.97;2.70;;;;;;;;;;5021142;28;20603;-87
2022/01/08 08:47:46;;;;;;;2.13;1.92;;;;;;;;;;5020846;28;20251;-87
2022/01/08 08:50:15;;;;;;;2.05;1.77;;;1.30;99.90;;;;;;5019714;28;20774;-87
2022/01/08 08:52:44;;;;;;;2.38;2.17;;;;;;;;;;5023735;28;20213;-87
2022/01/08 08:55:13;;;;;;;9.63;1.92;;;;;;;;;;5015436;28;20205;-87
2022/01/08 08:57:41;;;;;;;2.15;1.92;;;;;;;;;;5018038;28;20213;-87
2022/01/08 09:00:09;;;;;;;3.15;1.67;;;;;;;;;;5019082;28;20578;-87
2022/01/08 09:02:36;;;;;;;2.50;2.20;;;;;;;;;;5014645;28;20213;-88
2022/01/08 09:05:04;;;;;;;1.90;1.80;;;1.40;99.90;;;;;;5019534;28;20205;-87
2022/01/08 09:07:32;;;;;;;2.70;2.50;;;;;;;;;;5023803;28;20212;-87
2022/01/08 09:10:00;;;;;;;4.88;2.60;;;;;;;;;;5016783;28;20209;-87
2022/01/08 09:12:27;;;;;;;3.00;1.90;;;1.60;99.90;;;;;;5020074;28;20216;-87
2022/01/08 09:14:55;;;;;;;2.92;2.63;;;;;;;;;;5019842;28;20209;-87
2022/01/08 09:17:23;;;;;;;2.10;1.88;;;;;;;;;;5016143;28;20277;-87
2022/01/08 09:19:51;;;;;;;2.72;2.35;;;;;;;;;;5016740;28;20217;-86
2022/01/08 09:22:18;;;;;;;2.88;2.03;;;;;;;;;;5020235;28;20216;-86
2022/01/08 09:24:46;;;;;;;2.35;2.25;;;1.50;99.90;;;;;;5021860;28;20204;-87
2022/01/08 09:27:14;;;;;;;3.60;1.65;;;;;;;;;;5019038;28;20670;-87
2022/01/08 09:29:42;;;;;;;2.67;2.47;;;;;;;;;;5019411;28;20213;-87
2022/01/08 09:32:10;;;;;;;8.52;2.60;;;1.60;99.90;;;;;;5016849;28;20231;-87
2022/01/08 09:34:38;;;;;;;2.40;2.08;;;;;;;;;;5022533;28;20223;-87
2022/01/08 09:37:06;;;;;;;2.25;2.13;;;4.50;99.90;;;;;;5022388;28;20228;-87
2022/01/08 09:39:33;;;;;;;2.33;2.13;;;;;;;;;;5024978;28;20632;-86
2022/01/08 09:42:00;;;;;;;4.07;2.40;;;;;;;;;;5017890;28;20674;-87
2022/01/08 09:44:29;;;;;;;3.28;2.28;;;;;;;;;;5020960;28;20236;-87
2022/01/08 09:46:56;;;;;;;2.78;2.05;;;;;;;;;;5021973;28;20205;-87
2022/01/08 09:49:24;;;;;;;3.38;2.35;;;;;;;;;;5025279;28;20272;-87
2022/01/08 09:51:51;;;;;;;2.78;2.08;;;;;;;;;;5019958;28;20200;-87
2022/01/08 09:54:18;;;;;;;2.40;2.17;;;;;;;;;;5016821;28;20211;-87
2022/01/08 09:56:45;;;;;;;2.92;2.67;;;;;;;;;;5012834;28;20229;-87
2022/01/08 09:59:13;;;;;;;3.13;2.92;;;;;;;;;;5023552;28;20220;-87
2022/01/08 10:01:42;;;;;;;3.33;2.80;;;;;;;;;;5026735;28;20216;-87
2022/01/08 10:04:09;;;;;;;3.20;2.70;;;;;;;;;;5021379;28;20216;-87
2022/01/08 10:06:37;;;;;;;6.55;3.13;;;1.90;99.90;;;;;;5020999;28;20205;-87
2022/01/08 10:09:05;;;;;;;5.22;2.97;;;1.80;99.90;;;;;;5022060;28;20593;-87
2022/01/08 10:11:33;;;;;;;3.60;2.95;;;;;;;;;;5027720;28;20209;-88
2022/01/08 10:14:05;;;;;;;2.75;2.42;;;2.00;99.90;;;;;;5018667;28;20213;-87
2022/01/08 10:19:21;;;;;;;2.60;2.40;;;2.00;99.90;;;;;;5024153;28;20275;-87
2022/01/08 10:21:49;;;;;;;2.45;2.25;;;3.80;99.90;;;;;;5023157;28;20208;-87
2022/01/08 10:24:20;;;;;;;3.35;2.03;;;;;;;;;;5025386;28;20262;-87
2022/01/08 10:26:49;;;;;;;2.35;2.13;;;;;;;;;;5020806;28;20202;-86
2022/01/08 10:29:18;;;;;;;6.30;3.50;;;1.90;99.90;;;;;;5025751;28;20740;-87
2022/01/08 10:31:47;;;;;;;5.22;2.20;;;1.70;99.90;;;;;;5020283;28;20204;-87
2022/01/08 10:34:16;;;;;;;4.30;2.60;;;1.90;99.90;;;;;;5021533;28;20241;-87
2022/01/08 10:36:47;;;;;;;2.88;2.35;;;1.90;99.90;;;;;;5021082;28;20695;-87
2022/01/08 10:39:20;;;;;;;3.65;3.10;;;1.90;99.90;;;;;;5025874;28;20233;-87
2022/01/08 10:41:52;;;;;;;3.03;2.72;;;2.00;99.90;;;;;;5025259;28;20208;-87
2022/01/08 10:44:21;;;;;;;4.75;1.90;;;1.90;99.90;;;;;;5024608;28;20641;-86
2022/01/08 10:46:56;;;;;;;4.03;2.63;;;2.00;99.90;;;;;;5025896;28;20207;-87
2022/01/08 10:49:32;;;;;;;4.55;4.03;;;2.00;99.90;;;;;;5022356;28;20211;-88
2022/01/08 10:52:03;;;;;;;3.78;2.85;;;2.00;99.70;;;;;;5026815;28;20204;-87
2022/01/08 10:54:31;;;;;;;7.18;4.65;;;2.00;99.40;;;;;;5025336;28;20694;-88
2022/01/08 10:57:01;;;;;;;4.90;4.40;;;2.10;99.00;;;;;;5023232;28;21337;-88
2022/01/08 10:59:29;;;;;;;5.57;3.70;;;2.10;98.80;;;;;;5019651;28;20316;-88
2022/01/08 11:01:59;;;;;;;19.30;12.45;;;2.10;98.70;;;;;;5029296;28;20200;-88
2022/01/08 11:04:45;;;;;;;19.08;10.73;;;2.20;98.80;;;;;;5024812;28;20750;-88
2022/01/08 11:07:15;;;;;;;9.60;5.35;;;2.10;98.30;;;;;;5030116;28;20205;-86
2022/01/08 11:09:43;;;;;;;11.05;6.95;;;2.10;99.10;;;;;;5024127;28;20278;-87
2022/01/08 11:12:14;;;;;;;6.43;4.03;;;2.30;99.90;;;;;;5020759;28;20205;-87
2022/01/08 11:17:38;;;;;;;6.97;5.55;;;2.50;99.60;;;;;;5025936;28;20232;-86
2022/01/08 11:20:09;;;;;;;3.72;3.22;;;2.50;99.40;;;;;;5022561;28;20197;-86
2022/01/08 11:22:40;;;;;;;4.07;2.30;;;2.60;99.90;;;;;;5021338;28;20221;-87
2022/01/08 11:25:09;;;;;;;3.53;2.10;;;2.60;99.90;;;;;;5023752;28;20206;-87
2022/01/08 11:27:44;;;;;;;2.15;1.70;;;2.80;99.00;;;;;;5026266;28;20208;-87
2022/01/08 11:30:15;;;;;;;5.93;4.13;;;2.70;98.30;;;;;;5024195;28;20217;-87
2022/01/08 11:32:43;;;;;;;2.53;2.33;;;2.60;98.30;;;;;;5027885;28;20263;-87
2022/01/08 11:35:13;;;;;;;4.00;2.75;;;2.80;97.90;;;;;;5023497;28;20202;-86
2022/01/08 11:37:46;;;;;;;6.85;3.95;;;;;;;;;;5026186;28;20228;-86
2022/01/08 11:40:15;;;;;;;7.93;2.58;;;2.90;98.20;;;;;;5026389;28;20209;-86
2022/01/08 11:42:42;;;;;;;4.13;3.20;;;;;;;;;;5020944;28;20200;-86
2022/01/08 11:45:12;;;;;;;2.08;1.80;;;2.60;97.60;;;;;;5023031;28;20211;-87
2022/01/08 11:47:42;;;;;;;1.30;1.15;;;;;;;;;;5023580;28;20247;-87
2022/01/08 11:50:11;;;;;;;2.08;1.40;;;3.00;97.80;;;;;;5025493;28;20197;-86
2022/01/08 11:52:38;;;;;;;3.25;1.52;;;2.90;97.40;;;;;;5015339;28;20288;-87
2022/01/08 11:55:07;;;;;;;2.00;1.60;;;3.10;97.80;;;;;;5022097;28;20205;-85
2022/01/08 11:57:35;;;;;;;1.80;1.70;;;;;;;;;;5024229;28;20974;-85
2022/01/08 12:00:03;;;;;;;2.15;1.95;;;;;;;;;;5015890;28;20618;-86
2022/01/08 12:02:41;;;;;;;2.90;2.08;;;3.20;97.50;;;;;;5023064;28;20287;-86
2022/01/08 12:05:11;;;;;;;2.95;2.10;;;3.30;97.80;;;;;;5027324;28;20845;-87
2022/01/08 12:07:42;;;;;;;2.30;1.40;;;3.20;97.30;;;;;;5023077;28;20641;-87
2022/01/08 12:10:17;;;;;;;2.88;2.17;;;3.20;98.10;;;;;;5019103;28;20205;-86
2022/01/08 12:12:47;;;;;;;2.53;2.25;;;3.20;97.50;;;;;;5022903;28;20216;-86
2022/01/08 12:15:15;;;;;;;2.90;1.60;;;4.10;98.00;;;;;;5023342;28;20216;-87
2022/01/08 12:17:55;;;;;;;1.65;1.52;;;5.40;98.80;;;;;;5021414;28;20228;-86
2022/01/08 12:20:44;;;;;;;1.83;1.73;;;5.30;99.30;;;;;;5019611;28;20208;-87
2022/01/08 12:23:43;;;;;;;3.70;2.15;;;3.20;97.70;;;;;;5024992;28;20205;-87
2022/01/08 12:26:36;;;;;;;2.50;2.30;;;3.20;97.90;;;;;;5020366;28;20235;-87
2022/01/08 12:29:05;;;;;;;2.38;2.17;;;;;;;;;;5023513;28;20220;-86
2022/01/08 12:31:38;;;;;;;4.35;3.70;;;2.90;97.70;;;;;;5023837;28;20574;-86
2022/01/08 12:34:49;;;;;;;3.95;3.45;;;3.10;98.00;;;;;;5018849;28;20205;-86
2022/01/08 12:37:18;;;;;;;2.60;2.40;;;3.10;98.10;;;;;;5021196;28;20286;-87
2022/01/08 12:39:48;;;;;;;5.47;2.25;;;3.10;98.30;;;;;;5023345;28;20215;-87
2022/01/08 12:42:47;;;;;;;4.10;2.35;;;3.10;98.40;;;;;;5014069;28;20206;-87
2022/01/08 12:45:20;;;;;;;7.05;6.40;;;3.10;98.40;;;;;;5008286;28;20209;-86
2022/01/08 12:47:57;;;;;;;5.68;4.78;;;2.90;98.00;;;;;;5021199;28;20239;-86
2022/01/08 12:50:27;;;;;;;2.58;2.00;;;2.90;98.00;;;;;;5017967;28;20231;-86
2022/01/08 12:53:19;;;;;;;3.72;3.42;;;3.00;97.80;;;;;;5022379;28;20208;-86
2022/01/08 12:56:14;;;;;;;2.75;2.55;;;3.10;98.30;;;;;;5022794;28;20220;-87
2022/01/08 12:58:49;;;;;;;3.40;2.10;;;3.30;98.20;;;;;;5018179;28;20376;-87
2022/01/08 13:01:20;;;;;;;5.40;1.90;;;3.30;97.50;;;;;;5021440;28;20201;-87
2022/01/08 13:03:50;;;;;;;2.33;1.75;;;3.20;97.70;;;;;;5023288;28;20216;-87
2022/01/08 13:06:31;;;;;;;2.80;1.67;;;3.30;96.90;;;;;;5020737;28;20211;-86
2022/01/08 13:08:59;;;;;;;2.67;1.83;;;3.20;97.00;;;;;;5020800;28;20205;-86
2022/01/08 13:11:32;;;;;;;1.52;1.30;;;3.10;96.60;;;;;;5020812;28;20220;-86
2022/01/08 13:14:01;;;;;;;2.92;2.03;;;3.00;99.90;;;;;;5021582;28;20209;-87
2022/01/08 13:16:32;;;;;;;1.70;1.45;;;2.90;96.30;;;;;;5020951;28;20220;-85
2022/01/08 13:19:01;;;;;;;2.17;2.00;;;2.90;96.90;;;;;;5011437;28;20209;-86
2022/01/08 13:21:32;;;;;;;2.22;1.92;;;3.00;96.30;;;;;;5022915;28;20224;-86
2022/01/08 13:24:01;;;;;;;3.60;2.95;;;2.70;96.30;;;;;;5019520;28;20213;-86
2022/01/08 13:26:30;;;;;;;2.65;2.45;;;2.80;96.50;;;;;;5019152;28;20232;-85
2022/01/08 13:28:58;;;;;;;2.53;2.28;;;;;;;;;;5017523;28;20201;-85
2022/01/08 13:31:40;;;;;;;2.03;1.92;;;;;;;;;;5021941;28;20208;-86
2022/01/08 13:34:09;;;;;;;3.08;2.78;;;;;;;;;;5016902;28;20208;-86
2022/01/08 13:36:41;;;;;;;8.57;1.85;;;;;;;;;;5026300;28;20725;-85
2022/01/08 13:39:12;;;;;;;5.60;2.80;;;;;;;;;;5024793;28;20211;-86
2022/01/08 13:42:22;;;;;;;2.65;2.20;;;3.00;97.10;;;;;;5025154;28;20232;-86
2022/01/08 13:44:53;;;;;;;1.95;1.85;;;;;;;;;;5017456;28;20290;-86
2022/01/08 13:47:27;;;;;;;3.63;2.47;;;3.10;97.40;;;;;;5027817;28;20280;-86
2022/01/08 13:49:58;;;;;;;5.07;3.55;;;3.20;97.30;;;;;;5025801;28;20205;-86
2022/01/08 13:52:35;;;;;;;3.13;2.30;;;2.90;97.50;;;;;;5026948;28;20204;-86
2022/01/08 13:55:32;;;;;;;2.83;2.50;;;3.00;97.30;;;;;;5026112;28;20725;-86
2022/01/08 13:58:07;;;;;;;4.40;1.98;;;3.00;96.50;;;;;;5024549;28;20227;-86
2022/01/08 14:00:37;;;;;;;3.05;2.28;;;2.90;96.20;;;;;;5025316;28;20234;-86
2022/01/08 14:03:17;;;;;;;3.90;2.05;;;2.90;97.00;;;;;;5026550;28;20207;-86
2022/01/08 14:05:46;;;;;;;4.68;4.20;;;;;;;;;;5027359;28;20277;-86
2022/01/08 14:08:13;;;;;;;4.75;4.38;;;;;;;;;;5026386;28;20650;-85
2022/01/08 14:10:42;;;;;;;5.50;2.55;;;2.80;96.70;;;;;;5024284;28;20701;-86
2022/01/08 14:13:13;;;;;;;3.13;2.53;;;2.90;96.60;;;;;;5020426;28;20266;-86
2022/01/08 14:15:42;;;;;;;2.25;1.67;;;3.00;99.90;;;;;;5021124;28;20224;-86
2022/01/08 14:18:14;;;;;;;4.77;4.37;;;3.10;97.20;;;;;;5014799;28;20817;-86
2022/01/08 14:20:42;;;;;;;4.35;2.75;;;;;;;;;;5020429;28;20738;-86
2022/01/08 14:23:17;;;;;;;3.97;3.20;;;3.00;97.10;;;;;;5020153;28;20655;-86
2022/01/08 14:25:44;;;;;;;2.40;2.20;;;;;;;;;;5019276;28;20197;-85
2022/01/08 14:28:15;;;;;;;2.15;1.95;;;;;;;;;;5018412;28;20213;-86
2022/01/08 14:30:42;;;;;;;3.35;2.05;;;;;;;;;;5015930;28;20229;-85
2022/01/08 14:33:10;;;;;;;2.25;2.00;;;;;;;;;;5017275;28;20223;-85
2022/01/08 14:35:37;;;;;;;9.60;2.20;;;;;;;;;;5022867;28;20955;-84
2022/01/08 14:38:04;;;;;;;1.70;1.60;;;3.20;96.70;;;;;;5019899;28;20221;-85
2022/01/08 14:40:35;;;;;;;1.77;1.65;;;3.20;96.10;;;;;;5014809;28;20233;-86